Time;durP1;ratioP1;P1;durP2;ratioP2;P2;SDS_P1;SDS_P2;PMS_P1;PMS_P2;Temp;Humidity;BMP_temperature;BMP_pressure;BME280_temperature;BME280_humidity;BME280_pressure;Samples;Min_cycle;Max_cycle;Signal;HPM_P1;HPM_P2
2024/03/13 00:03:05;;;;;;;6.60;5.83;;;;;;;12.63;58.39;98749.28;6708370;29;20223;-86
2024/03/13 00:06:28;;;;;;;6.13;4.87;;;;;;;12.51;58.70;98761.84;6709446;29;20312;-86
2024/03/13 00:09:53;;;;;;;7.80;5.90;;;;;;;12.58;58.50;98751.00;6708876;29;20225;-86
2024/03/13 00:13:15;;;;;;;5.70;4.90;;;;;;;12.48;58.32;98719.03;6711569;29;20666;-86
2024/03/13 00:16:37;;;;;;;6.20;4.77;;;;;;;12.55;58.32;98744.13;6709042;29;20211;-86
2024/03/13 00:19:59;;;;;;;6.83;5.50;;;;;;;12.46;58.50;98734.63;6708250;29;20381;-86
2024/03/13 00:23:21;;;;;;;5.67;5.07;;;;;;;12.43;59.25;98742.34;6708585;29;20245;-86
2024/03/13 00:26:50;;;;;;;5.37;4.73;;;;;;;12.58;58.88;98734.75;6710220;29;20561;-86
2024/03/13 00:30:12;;;;;;;4.87;4.20;;;;;;;12.33;59.06;98740.13;6708995;29;20323;-86
2024/03/13 00:33:34;;;;;;;4.37;3.93;;;;;;;12.44;58.87;98736.72;6711206;29;20661;-86
2024/03/13 00:36:55;;;;;;;4.60;3.87;;;;;;;12.37;59.17;98724.28;6712253;29;20214;-86
2024/03/13 00:40:18;;;;;;;4.40;4.00;;;;;;;12.18;59.26;98736.06;6712438;29;20233;-86
2024/03/13 00:43:42;;;;;;;4.20;3.80;;;;;;;12.19;59.49;98722.34;6710734;29;20213;-86
2024/03/13 00:47:04;;;;;;;3.80;3.20;;;;;;;11.94;59.82;98724.16;6710071;29;20212;-86
2024/03/13 00:50:25;;;;;;;3.40;3.10;;;;;;;12.04;59.48;98712.88;6712055;29;20236;-85
2024/03/13 00:53:48;;;;;;;3.50;3.20;;;;;;;11.81;59.91;98720.69;6714483;29;20216;-86
2024/03/13 00:57:11;;;;;;;2.77;2.57;;;;;;;11.76;59.76;98706.97;6715687;29;20558;-87
2024/03/13 01:00:35;;;;;;;2.97;2.77;;;;;;;11.28;59.60;98611.22;6720330;29;20264;-86
2024/03/13 01:03:59;;;;;;;3.43;3.13;;;;;;;11.70;60.71;98710.53;6722531;29;20216;-86
2024/03/13 01:07:22;;;;;;;3.77;2.90;;;;;;;11.55;60.00;98621.69;6722565;29;20214;-86
2024/03/13 01:10:43;;;;;;;3.40;3.07;;;;;;;11.67;61.02;98697.44;6722932;29;20241;-86
2024/03/13 01:14:05;;;;;;;9.30;3.30;;;;;;;11.28;61.79;98666.00;6723776;29;20277;-85
2024/03/13 01:17:28;;;;;;;2.73;2.50;;;;;;;11.42;62.17;98689.22;6723343;29;20337;-84
2024/03/13 01:20:49;;;;;;;3.40;2.80;;;;;;;11.66;61.49;98680.44;6723180;29;20638;-84
2024/03/13 01:24:11;;;;;;;3.37;2.90;;;;;;;12.01;60.79;98686.28;6723257;29;20213;-84
2024/03/13 01:27:32;;;;;;;3.03;2.83;;;;;;;11.72;61.40;98690.38;6723228;29;20275;-84
2024/03/13 01:30:54;;;;;;;3.63;2.80;;;;;;;11.80;61.58;98692.00;6722662;29;20646;-84
2024/03/13 01:34:19;;;;;;;3.27;2.57;;;;;;;11.63;61.39;98693.53;6722370;29;20232;-84
2024/03/13 01:37:58;;;;;;;2.90;2.70;;;;;;;11.45;61.69;98685.28;6721922;29;20233;-84
2024/03/13 01:56:21;;;;;;;2.80;2.60;;;;;;;12.06;60.00;98695.41;6721150;29;20206;-84
2024/03/13 02:02:21;;;;;;;2.93;2.37;;;;;;;11.82;59.99;98671.00;6720891;29;20232;-84
2024/03/13 02:03:31;;;;;;;4.30;3.90;;;;;;;11.48;61.26;98682.97;6720572;29;20587;-84
2024/03/13 02:06:53;;;;;;;4.33;3.93;;;;;;;11.29;61.64;98677.66;6720929;29;20244;-84
2024/03/13 02:10:16;;;;;;;4.33;3.93;;;;;;;11.08;62.40;98640.97;6720064;29;20297;-83
2024/03/13 02:13:40;;;;;;;2.47;2.37;;;;;;;10.79;63.40;98675.66;6716112;29;20301;-83
2024/03/13 02:17:02;;;;;;;2.93;2.63;;;;;;;10.92;63.38;98654.09;6715962;29;20205;-84
2024/03/13 02:20:25;;;;;;;2.30;2.20;;;;;;;10.49;65.00;98680.69;6715842;29;20293;-84
2024/03/13 02:23:46;;;;;;;3.23;3.03;;;;;;;10.32;65.22;98663.25;6716725;29;20220;-84
2024/03/13 02:27:11;;;;;;;3.50;3.20;;;;;;;10.41;64.39;98597.34;6698768;29;20265;-84
2024/03/13 02:30:33;;;;;;;2.77;2.57;;;;;;;11.00;62.98;98668.19;6713443;29;20728;-84
2024/03/13 02:33:55;;;;;;;3.17;2.93;;;;;;;10.86;63.80;98671.94;6699204;29;20209;-84
2024/03/13 02:37:17;;;;;;;2.50;2.30;;;;;;;10.35;64.41;98665.56;6699343;29;20213;-84
2024/03/13 02:40:39;;;;;;;2.37;2.13;;;;;;;10.83;64.16;98666.97;6699220;29;20297;-84
2024/03/13 02:44:00;;;;;;;2.40;2.20;;;;;;;10.77;63.92;98662.41;6699001;29;20720;-84
2024/03/13 02:47:22;;;;;;;2.30;2.20;;;;;;;10.49;63.67;98648.34;6698290;29;20244;-84
2024/03/13 02:50:44;;;;;;;2.90;2.63;;;;;;;11.33;61.64;98643.81;6696987;29;20334;-84
2024/03/13 02:54:05;;;;;;;2.10;2.00;;;;;;;11.42;60.67;98629.84;6697728;29;20369;-84
2024/03/13 02:57:27;;;;;;;2.37;2.00;;;;;;;11.54;59.64;98621.88;6694912;29;20357;-87
2024/03/13 03:00:49;;;;;;;2.60;2.40;;;;;;;11.48;59.91;98610.09;6693136;29;20385;-87
2024/03/13 03:04:11;;;;;;;2.50;2.00;;;;;;;11.56;59.38;98639.53;6692932;29;20220;-87
2024/03/13 03:07:33;;;;;;;2.23;2.10;;;;;;;11.35;59.24;98618.25;6693665;29;20220;-87
2024/03/13 03:10:56;;;;;;;6.60;2.13;;;;;;;10.52;61.40;98603.97;6693217;29;20737;-86
2024/03/13 03:14:18;;;;;;;2.47;2.27;;;;;;;10.15;63.68;98589.25;6692893;29;20346;-87
2024/03/13 03:17:45;;;;;;;2.20;2.10;;;;;;;10.39;62.19;98634.44;6692519;29;20266;-86
2024/03/13 03:21:08;;;;;;;2.03;1.93;;;;;;;9.63;64.50;98618.78;6693715;29;20225;-86
2024/03/13 03:24:30;;;;;;;2.23;2.10;;;;;;;10.38;63.69;98672.38;6691839;29;20695;-86
2024/03/13 03:27:52;;;;;;;2.30;2.10;;;;;;;9.89;63.69;98632.31;6688464;29;20218;-86
2024/03/13 03:31:13;;;;;;;2.10;2.00;;;;;;;10.46;62.72;98651.44;6687120;29;20217;-87
2024/03/13 03:34:35;;;;;;;2.03;1.83;;;;;;;10.26;63.29;98653.31;6692814;29;20682;-86
2024/03/13 03:37:58;;;;;;;2.00;1.90;;;;;;;11.16;61.43;98688.47;6692579;29;20308;-87
2024/03/13 03:41:20;;;;;;;3.03;2.20;;;;;;;11.01;60.81;98669.84;6691127;29;20244;-87
2024/03/13 03:44:41;;;;;;;1.77;1.73;;;;;;;11.11;61.13;98672.09;6692135;29;20217;-86
2024/03/13 03:48:03;;;;;;;1.90;1.80;;;;;;;10.65;61.62;98671.34;6691860;29;20295;-86
2024/03/13 03:51:26;;;;;;;2.20;2.00;;;;;;;10.53;61.02;98587.59;6691673;29;20438;-87
2024/03/13 03:54:48;;;;;;;2.10;2.00;;;;;;;11.23;60.28;98673.09;6692109;29;20300;-86
2024/03/13 03:58:09;;;;;;;2.00;1.90;;;;;;;10.67;61.62;98669.25;6691772;29;20323;-86
2024/03/13 04:01:31;;;;;;;1.50;1.50;;;;;;;10.60;61.21;98634.22;6691417;29;20710;-86
2024/03/13 04:04:53;;;;;;;1.87;1.83;;;;;;;10.68;61.93;98677.13;6692066;29;20280;-86
2024/03/13 04:08:14;;;;;;;1.90;1.80;;;;;;;10.29;62.71;98663.69;6692609;29;20368;-87
2024/03/13 04:11:36;;;;;;;1.70;1.70;;;;;;;10.79;62.21;98676.50;6691104;29;20269;-86
2024/03/13 04:14:58;;;;;;;2.00;1.90;;;;;;;10.88;61.69;98669.03;6692035;29;20343;-87
2024/03/13 04:18:19;;;;;;;1.90;1.80;;;;;;;11.30;60.29;98663.94;6691723;29;21117;-86
2024/03/13 04:21:42;;;;;;;2.10;1.97;;;;;;;11.74;58.76;98658.56;6692180;29;20315;-87
2024/03/13 04:25:04;;;;;;;1.93;1.80;;;;;;;11.20;59.27;98627.63;6692045;29;20702;-86
2024/03/13 04:28:26;;;;;;;1.80;1.70;;;;;;;11.67;58.63;98668.59;6691820;29;20272;-87
2024/03/13 04:31:48;;;;;;;1.93;1.83;;;;;;;11.83;58.05;98668.09;6692199;29;20703;-86
2024/03/13 04:35:09;;;;;;;2.07;1.90;;;;;;;11.61;58.83;98674.84;6691936;29;20307;-87
2024/03/13 04:38:31;;;;;;;1.60;1.50;;;;;;;11.34;58.96;98637.34;6692853;29;20370;-86
2024/03/13 04:41:53;;;;;;;1.97;1.77;;;;;;;11.71;58.74;98675.22;6694132;29;20267;-86
2024/03/13 04:45:15;;;;;;;1.97;1.83;;;;;;;11.41;58.12;98598.50;6695123;29;20216;-86
2024/03/13 04:48:37;;;;;;;1.70;1.60;;;;;;;11.82;58.88;98674.56;6695221;29;20263;-86
2024/03/13 04:51:59;;;;;;;1.63;1.60;;;;;;;11.89;58.69;98683.44;6694549;29;20379;-86
2024/03/13 04:55:20;;;;;;;1.80;1.70;;;;;;;12.09;58.09;98678.72;6693921;29;20245;-86
2024/03/13 04:58:44;;;;;;;1.90;1.80;;;;;;;11.89;58.41;98666.38;6690994;29;20237;-86
2024/03/13 05:02:06;;;;;;;3.63;1.90;;;;;;;12.09;57.92;98692.25;6709539;29;20384;-86
2024/03/13 05:05:28;;;;;;;2.20;2.10;;;;;;;12.04;58.01;98696.66;6702399;29;20212;-86
2024/03/13 05:08:50;;;;;;;2.00;1.90;;;;;;;11.74;58.53;98690.19;6706025;29;20259;-86
2024/03/13 05:12:12;;;;;;;1.83;1.73;;;;;;;11.80;58.97;98702.81;6711242;29;20235;-85
2024/03/13 05:15:34;;;;;;;1.80;1.70;;;;;;;11.88;59.10;98706.09;6698922;29;20217;-84
2024/03/13 05:18:55;;;;;;;1.80;1.80;;;;;;;12.02;58.14;98680.66;6694732;29;20286;-84
2024/03/13 05:22:17;;;;;;;4.33;1.60;;;;;;;11.93;58.70;98708.97;6695391;29;20246;-84
2024/03/13 05:25:39;;;;;;;1.90;1.80;;;;;;;11.84;59.27;98702.16;6695580;29;20252;-83
2024/03/13 05:29:02;;;;;;;2.00;1.80;;;;;;;11.94;59.10;98709.81;6694300;29;20253;-84
2024/03/13 05:32:24;;;;;;;1.90;1.80;;;;;;;11.87;58.90;98698.22;6696947;29;20307;-83
2024/03/13 05:35:45;;;;;;;1.83;1.73;;;;;;;11.88;59.33;98699.84;6696214;29;20305;-84
2024/03/13 05:39:12;;;;;;;2.00;1.90;;;;;;;11.61;59.88;98707.25;6695285;29;20294;-84
2024/03/13 05:42:33;;;;;;;1.97;1.87;;;;;;;11.78;59.82;98710.28;6696432;29;20288;-84
2024/03/13 05:45:55;;;;;;;1.90;1.80;;;;;;;12.00;59.58;98711.63;6695497;29;20262;-85
2024/03/13 05:49:17;;;;;;;2.03;1.93;;;;;;;12.08;59.58;98723.03;6698891;29;20240;-84
2024/03/13 05:52:39;;;;;;;2.33;2.03;;;;;;;12.05;59.87;98712.63;6697530;29;20220;-85
2024/03/13 05:56:00;;;;;;;3.43;2.33;;;;;;;11.72;60.78;98727.34;6698612;29;20233;-84
2024/03/13 05:59:22;;;;;;;3.00;2.33;;;;;;;11.91;60.76;98713.75;6698407;29;20710;-84
2024/03/13 06:02:44;;;;;;;2.37;2.10;;;;;;;11.47;61.41;98716.44;6699764;29;20299;-84
2024/03/13 06:06:05;;;;;;;2.53;1.90;;;;;;;11.55;61.66;98723.44;6700379;29;20248;-84
2024/03/13 06:09:28;;;;;;;3.43;2.00;;;;;;;11.80;61.39;98736.03;6694311;29;20265;-84
2024/03/13 06:12:49;;;;;;;2.20;2.10;;;;;;;11.82;61.12;98728.56;6699307;29;20661;-84
2024/03/13 06:16:13;;;;;;;2.63;2.40;;;;;;;11.97;60.36;98706.66;6695389;29;20242;-85
2024/03/13 06:19:35;;;;;;;5.67;2.80;;;;;;;12.16;60.21;98735.47;6692241;29;20248;-84
2024/03/13 06:23:03;;;;;;;2.10;2.00;;;;;;;12.07;59.74;98697.06;6693709;29;20926;-82
2024/03/13 06:26:28;;;;;;;2.70;2.50;;;;;;;11.65;61.84;98740.06;6693621;29;20216;-85
2024/03/13 06:38:54;;;;;;;2.00;1.90;;;;;;;12.15;61.72;98733.81;6718911;29;20217;-87
2024/03/13 06:42:27;;;;;;;2.50;2.10;;;;;;;12.25;61.22;98744.94;6705690;29;20232;-87
2024/03/13 06:45:50;;;;;;;2.50;2.30;;;;;;;12.33;60.96;98742.81;6703326;29;20213;-83
2024/03/13 06:49:12;;;;;;;2.70;2.43;;;;;;;11.90;61.08;98678.84;6694132;29;20243;-82
2024/03/13 06:52:34;;;;;;;4.03;2.93;;;;;;;12.47;60.92;98738.16;6695090;29;20304;-82
2024/03/13 06:55:55;;;;;;;2.20;2.00;;;;;;;12.60;60.04;98748.88;6694531;29;20277;-83
2024/03/13 06:59:17;;;;;;;2.20;1.90;;;;;;;12.50;61.19;98737.72;6708058;29;20770;-83
2024/03/13 07:02:39;;;;;;;2.17;2.07;;;;;;;12.71;60.31;98749.03;6668851;29;20790;-83
2024/03/13 07:06:00;;;;;;;2.40;2.30;;;;;;;12.59;60.02;98752.63;6679041;29;20301;-82
2024/03/13 07:09:22;;;;;;;2.40;2.13;;;;;;;12.38;60.78;98724.06;6666605;29;20275;-80
2024/03/13 07:12:43;;;;;;;2.00;1.90;;;;;;;12.76;60.16;98757.28;6681515;29;20274;-83
2024/03/13 07:16:05;;;;;;;1.90;1.80;;;;;;;12.96;59.91;98755.28;6693655;29;20329;-82
2024/03/13 07:19:27;;;;;;;1.90;1.80;;;;;;;12.64;59.88;98671.69;6682817;29;20280;-85
2024/03/13 07:22:49;;;;;;;1.77;1.67;;;;;;;12.87;59.20;98726.00;6691559;29;20301;-82
2024/03/13 07:26:11;;;;;;;2.70;1.60;;;;;;;12.89;59.59;98713.06;6696363;29;20249;-85
2024/03/13 07:29:35;;;;;;;2.70;1.67;;;;;;;12.79;59.39;98686.50;6697720;29;20228;-88
2024/03/13 07:32:57;;;;;;;1.70;1.60;;;;;;;13.25;59.27;98742.94;6696134;29;20653;-81
2024/03/13 07:36:21;;;;;;;1.93;1.70;;;;;;;12.88;59.88;98739.31;6696766;29;20253;-82
2024/03/13 07:39:42;;;;;;;1.80;1.70;;;;;;;13.26;60.67;98758.97;6698467;29;20244;-85
2024/03/13 07:43:05;;;;;;;1.97;1.77;;;;;;;13.72;59.26;98761.19;6694955;29;20233;-82
2024/03/13 07:46:27;;;;;;;1.67;1.57;;;;;;;13.47;59.10;98755.00;6695474;29;20251;-83
2024/03/13 07:49:49;;;;;;;2.30;2.20;;;;;;;13.67;58.92;98769.16;6682441;29;20316;-85
2024/03/13 07:53:10;;;;;;;1.83;1.73;;;;;;;13.91;58.47;98773.66;6669853;29;20283;-85
2024/03/13 07:56:32;;;;;;;2.23;2.10;;;;;;;14.12;57.71;98763.19;6688352;29;20216;-85
2024/03/13 07:59:54;;;;;;;1.93;1.83;;;;;;;14.08;58.18;98766.56;6695011;29;20303;-85
2024/03/13 08:03:15;;;;;;;2.07;1.90;;;;;;;14.03;57.94;98767.25;6698428;29;20202;-86
2024/03/13 08:06:38;;;;;;;1.93;1.83;;;;;;;13.16;58.55;98641.41;6697758;29;20360;-85
2024/03/13 08:09:59;;;;;;;1.90;1.80;;;;;;;13.79;58.25;98734.81;6691885;29;21845;-86
2024/03/13 08:13:21;;;;;;;3.43;1.80;;;;;;;14.17;57.98;98789.63;6696212;29;20209;-86
2024/03/13 08:16:43;;;;;;;2.17;2.00;;;;;;;14.36;58.04;98780.41;6695979;29;20938;-83
2024/03/13 08:20:05;;;;;;;3.37;2.17;;;;;;;14.50;57.28;98790.84;6694917;29;20285;-83
2024/03/13 08:23:26;;;;;;;1.63;1.60;;;;;;;14.60;56.73;98790.28;6696107;29;20262;-84
2024/03/13 08:26:48;;;;;;;1.90;1.80;;;;;;;14.63;57.22;98796.09;6696063;29;20213;-84
2024/03/13 08:30:10;;;;;;;2.00;1.83;;;;;;;14.65;56.62;98761.41;6683237;29;20266;-84
2024/03/13 08:33:32;;;;;;;1.90;1.80;;;;;;;14.68;57.07;98788.06;6684803;29;20230;-84
2024/03/13 08:36:54;;;;;;;3.07;2.40;;;;;;;14.12;58.17;98781.34;6684590;29;20215;-84
2024/03/13 08:40:16;;;;;;;2.47;2.20;;;;;;;14.53;57.18;98781.44;6686306;29;20256;-84
2024/03/13 08:43:39;;;;;;;2.50;2.30;;;;;;;14.72;57.31;98788.44;6695829;29;20222;-85
2024/03/13 08:47:01;;;;;;;2.20;2.00;;;;;;;14.53;57.63;98809.41;6695330;29;20624;-84
2024/03/13 08:50:22;;;;;;;2.63;2.43;;;;;;;14.54;57.85;98811.06;6693053;29;20240;-83
2024/03/13 08:53:45;;;;;;;2.30;2.20;;;;;;;14.56;57.68;98800.78;6692181;29;20267;-83
2024/03/13 08:57:08;;;;;;;2.30;2.10;;;;;;;13.95;58.31;98755.91;6685613;29;20218;-84
2024/03/13 09:00:30;;;;;;;2.43;2.23;;;;;;;14.79;57.50;98814.44;6679730;29;20233;-83
2024/03/13 09:03:53;;;;;;;2.70;2.33;;;;;;;14.87;57.90;98816.81;6691086;29;20679;-83
2024/03/13 09:07:14;;;;;;;2.97;2.30;;;;;;;14.75;56.79;98826.81;6686695;29;20251;-83
2024/03/13 09:10:36;;;;;;;2.60;2.30;;;;;;;14.54;58.85;98823.78;6682269;29;20263;-83
2024/03/13 09:14:01;;;;;;;2.40;2.20;;;;;;;14.85;58.67;98831.66;6690360;29;20233;-84
2024/03/13 09:17:24;;;;;;;3.00;2.20;;;;;;;14.81;57.93;98838.63;6701898;29;20244;-84
2024/03/13 09:20:45;;;;;;;4.40;2.50;;;;;;;14.45;58.55;98836.81;6691616;29;20237;-84
2024/03/13 09:24:07;;;;;;;2.30;2.20;;;;;;;13.98;59.18;98839.50;6696929;29;20624;-84
2024/03/13 09:27:29;;;;;;;3.00;2.30;;;;;;;14.45;59.33;98852.28;6695842;29;20356;-84
2024/03/13 09:30:51;;;;;;;2.47;2.27;;;;;;;14.49;58.75;98831.78;6693819;29;20240;-83
2024/03/13 09:34:12;;;;;;;2.70;2.50;;;;;;;14.28;60.51;98848.53;6694711;29;20262;-82
2024/03/13 09:37:36;;;;;;;2.63;2.43;;;;;;;14.07;61.48;98806.41;6694083;29;20248;-84
2024/03/13 09:40:57;;;;;;;2.63;2.10;;;;;;;14.34;60.49;98842.22;6682120;29;20233;-84
2024/03/13 09:44:19;;;;;;;3.00;2.30;;;;;;;14.42;61.12;98850.88;6692730;29;20258;-82
2024/03/13 09:47:41;;;;;;;2.70;2.47;;;;;;;14.50;61.75;98838.84;6692109;29;20287;-83
2024/03/13 09:51:03;;;;;;;2.80;2.60;;;;;;;15.09;59.95;98801.63;6691289;29;20298;-84
2024/03/13 09:54:27;;;;;;;2.73;2.50;;;;;;;15.58;58.98;98846.59;6693086;29;20304;-85
2024/03/13 09:57:49;;;;;;;2.40;2.30;;;;;;;15.11;58.55;98848.38;6695521;29;20356;-84
2024/03/13 10:01:11;;;;;;;2.57;2.37;;;;;;;15.20;60.69;98865.16;6693519;29;20227;-81
2024/03/13 10:04:32;;;;;;;2.67;2.47;;;;;;;15.25;60.02;98860.72;6693393;29;20258;-86
2024/03/13 10:07:54;;;;;;;2.40;2.20;;;;;;;15.62;59.86;98854.03;6696909;29;20307;-83
2024/03/13 10:11:15;;;;;;;3.27;2.50;;;;;;;15.84;59.90;98848.84;6696394;29;20217;-83
2024/03/13 10:14:37;;;;;;;3.07;2.40;;;;;;;15.27;58.84;98838.75;6697413;29;20281;-83
2024/03/13 10:17:59;;;;;;;2.40;2.23;;;;;;;15.69;59.49;98851.22;6695208;29;20229;-85
2024/03/13 10:21:21;;;;;;;2.60;2.40;;;;;;;15.80;59.94;98856.66;6696218;29;20597;-82
2024/03/13 10:24:42;;;;;;;4.60;2.80;;;;;;;15.52;61.29;98861.13;6696029;29;20354;-83
2024/03/13 10:28:05;;;;;;;3.00;2.73;;;;;;;15.77;60.20;98861.72;6694337;29;20352;-85
2024/03/13 10:31:26;;;;;;;4.73;3.03;;;;;;;15.86;60.07;98858.41;6694127;29;20196;-86
2024/03/13 10:34:49;;;;;;;2.73;2.47;;;;;;;16.40;59.00;98868.06;6693496;29;20259;-82
2024/03/13 10:38:12;;;;;;;3.90;3.10;;;;;;;16.16;59.42;98858.28;6700401;29;20650;-82
2024/03/13 10:41:34;;;;;;;6.80;3.67;;;;;;;16.53;58.17;98857.75;6698897;29;20268;-86
2024/03/13 10:44:58;;;;;;;2.00;1.90;;;;;;;16.17;57.79;98855.28;6697891;29;20259;-82
2024/03/13 10:48:20;;;;;;;2.40;2.20;;;;;;;15.36;60.77;98861.81;6701020;29;20744;-83
2024/03/13 10:51:43;;;;;;;2.27;2.07;;;;;;;15.70;60.74;98852.88;6699036;29;20289;-85
2024/03/13 10:55:05;;;;;;;2.97;2.20;;;;;;;16.05;60.47;98854.47;6700088;29;20236;-84
2024/03/13 10:58:26;;;;;;;2.43;2.23;;;;;;;16.23;59.83;98856.25;6687149;29;20240;-83
2024/03/13 11:01:52;;;;;;;2.40;2.20;;;;;;;16.37;59.26;98844.84;6696215;29;20371;-86
2024/03/13 11:05:14;;;;;;;4.40;2.43;;;;;;;16.71;58.78;98849.38;6697327;29;20226;-84
2024/03/13 11:08:35;;;;;;;3.37;2.50;;;;;;;16.47;58.76;98850.53;6697303;29;20242;-82
2024/03/13 11:11:57;;;;;;;2.97;2.20;;;;;;;16.02;60.26;98854.97;6698519;29;20298;-84
2024/03/13 11:15:19;;;;;;;3.20;2.90;;;;;;;15.01;62.85;98855.44;6682629;29;20234;-84
2024/03/13 11:18:42;;;;;;;3.60;2.70;;;;;;;15.17;62.15;98835.78;6696335;29;20324;-84
2024/03/13 11:22:04;;;;;;;4.37;2.50;;;;;;;15.89;62.02;98857.09;6696666;29;20247;-81
2024/03/13 11:25:25;;;;;;;3.00;2.10;;;;;;;16.50;60.92;98849.22;6696792;29;20348;-81
2024/03/13 11:28:47;;;;;;;2.47;2.27;;;;;;;16.63;60.03;98852.47;6697223;29;20279;-82
2024/03/13 11:32:09;;;;;;;2.07;1.93;;;;;;;16.69;59.88;98839.81;6707677;29;20221;-83
2024/03/13 11:35:32;;;;;;;2.53;2.33;;;;;;;16.57;60.43;98845.28;6711770;29;20225;-83
2024/03/13 11:38:53;;;;;;;3.03;2.70;;;;;;;16.42;61.03;98814.22;6699784;29;20235;-86
2024/03/13 11:42:16;;;;;;;3.17;2.83;;;;;;;16.06;60.83;98795.50;6683155;29;20275;-82
2024/03/13 11:45:42;;;;;;;3.00;2.50;;;;;;;16.24;61.19;98847.00;6681836;29;20214;-83
2024/03/13 11:49:03;;;;;;;3.97;2.27;;;;;;;15.92;61.83;98840.34;6673879;29;20369;-83
2024/03/13 11:52:25;;;;;;;2.43;2.23;;;;;;;16.21;60.86;98848.31;6692186;29;20222;-82
2024/03/13 11:55:48;;;;;;;2.53;2.20;;;;;;;15.93;61.57;98840.06;6693059;29;20303;-83
2024/03/13 11:59:10;;;;;;;3.50;2.50;;;;;;;16.53;61.16;98835.97;6692672;29;20669;-83
2024/03/13 12:02:40;;;;;;;3.87;2.60;;;;;;;16.54;60.70;98832.16;6692759;29;20290;-84
2024/03/13 12:06:02;;;;;;;3.27;2.73;;;;;;;16.41;60.71;98807.13;6693161;29;20252;-83
2024/03/13 12:09:27;;;;;;;3.20;2.33;;;;;;;16.94;59.47;98830.22;6691964;29;20328;-83
2024/03/13 12:12:48;;;;;;;3.73;3.37;;;;;;;16.80;58.56;98828.03;6692566;29;20213;-82
2024/03/13 12:16:10;;;;;;;4.03;3.50;;;;;;;17.04;58.98;98824.94;6690993;29;20800;-84
2024/03/13 12:19:32;;;;;;;3.20;2.70;;;;;;;17.26;58.71;98820.41;6691876;29;20240;-85
2024/03/13 12:22:54;;;;;;;3.27;2.97;;;;;;;17.12;58.53;98826.44;6692020;29;20258;-84
2024/03/13 12:26:17;;;;;;;2.80;2.60;;;;;;;16.75;59.72;98827.94;6694129;29;20710;-82
2024/03/13 12:29:39;;;;;;;3.47;2.70;;;;;;;17.18;60.42;98837.19;6695357;29;20279;-83
2024/03/13 12:33:01;;;;;;;3.10;2.90;;;;;;;16.64;61.41;98816.00;6687759;29;20206;-84
2024/03/13 12:36:23;;;;;;;4.20;3.07;;;;;;;17.31;59.48;98815.06;6691470;29;20288;-83
2024/03/13 12:39:46;;;;;;;4.87;3.43;;;;;;;17.29;60.47;98813.66;6674528;29;20654;-83
2024/03/13 12:43:08;;;;;;;3.90;2.83;;;;;;;17.78;59.47;98801.91;6684727;29;20599;-83
2024/03/13 12:46:29;;;;;;;3.13;2.83;;;;;;;17.96;57.97;98796.97;6694049;29;20224;-83
2024/03/13 12:49:51;;;;;;;4.63;3.10;;;;;;;18.11;57.54;98796.34;6693679;29;20334;-84
2024/03/13 12:53:13;;;;;;;3.80;2.73;;;;;;;18.19;57.44;98799.47;6702258;29;20209;-83
2024/03/13 12:56:34;;;;;;;3.00;2.80;;;;;;;17.70;58.23;98792.22;6698716;29;20245;-82
2024/03/13 12:59:56;;;;;;;3.57;3.27;;;;;;;17.38;59.22;98796.66;6681737;29;20377;-82
2024/03/13 13:03:18;;;;;;;3.23;2.93;;;;;;;17.20;58.69;98796.88;6696137;29;20715;-83
2024/03/13 13:06:40;;;;;;;3.60;3.30;;;;;;;17.10;59.61;98799.44;6691289;29;20294;-82
2024/03/13 13:10:02;;;;;;;4.20;3.10;;;;;;;16.64;60.68;98785.25;6704861;29;20229;-82
2024/03/13 13:13:26;;;;;;;3.87;3.47;;;;;;;17.22;59.18;98783.81;6681611;29;20237;-81
2024/03/13 13:16:47;;;;;;;3.97;3.60;;;;;;;17.51;58.88;98793.59;6695236;29;20212;-81
2024/03/13 13:20:11;;;;;;;3.83;3.53;;;;;;;17.04;58.87;98713.25;6701206;29;20233;-82
2024/03/13 13:23:32;;;;;;;5.30;3.80;;;;;;;17.65;58.83;98796.81;6697979;29;20240;-82
2024/03/13 13:26:54;;;;;;;3.80;3.30;;;;;;;17.39;59.46;98787.41;6699582;29;20304;-82
2024/03/13 13:30:16;;;;;;;4.30;3.90;;;;;;;17.49;58.62;98800.38;6700708;29;20255;-83
2024/03/13 13:33:37;;;;;;;6.90;3.97;;;;;;;17.70;58.48;98797.69;6700307;29;20645;-83
2024/03/13 13:36:59;;;;;;;6.03;4.13;;;;;;;17.83;59.07;98797.34;6701266;29;20431;-83
2024/03/13 13:40:22;;;;;;;5.37;4.30;;;;;;;17.29;59.15;98797.31;6700367;29;20300;-83
2024/03/13 13:43:44;;;;;;;5.73;4.33;;;;;;;17.60;60.01;98791.28;6698523;29;20243;-83
2024/03/13 13:47:06;;;;;;;5.77;4.90;;;;;;;17.65;59.06;98800.38;6697331;29;20354;-83
2024/03/13 13:50:28;;;;;;;5.30;4.90;;;;;;;17.66;60.00;98793.84;6694252;29;20232;-83
2024/03/13 13:53:49;;;;;;;6.67;5.20;;;;;;;17.68;60.07;98805.31;6701185;29;20209;-83
2024/03/13 13:57:12;;;;;;;5.70;5.20;;;;;;;17.63;60.50;98796.22;6698028;29;20643;-83
2024/03/13 14:00:35;;;;;;;4.93;4.53;;;;;;;17.89;59.79;98792.78;6698377;29;20240;-83
2024/03/13 14:03:57;;;;;;;5.83;5.33;;;;;;;17.91;59.69;98791.44;6698963;29;20232;-82
2024/03/13 14:07:18;;;;;;;7.13;6.43;;;;;;;17.84;60.70;98793.53;6698073;29;20216;-83
2024/03/13 14:10:40;;;;;;;6.73;5.37;;;;;;;17.75;60.86;98791.50;6706277;29;20759;-83
2024/03/13 14:14:02;;;;;;;6.90;4.47;;;;;;;17.45;61.65;98796.50;6706944;29;20212;-83
2024/03/13 14:17:27;;;;;;;8.53;5.47;;;;;;;17.59;61.32;98797.81;6703783;29;20217;-83
2024/03/13 14:20:48;;;;;;;6.67;4.97;;;;;;;17.91;59.82;98796.06;6702359;29;20229;-83
2024/03/13 14:24:10;;;;;;;4.83;4.30;;;;;;;17.34;60.61;98789.22;6699855;29;20865;-83
2024/03/13 14:27:32;;;;;;;4.90;4.50;;;;;;;17.22;60.76;98759.31;6694179;29;20262;-82
2024/03/13 14:30:55;;;;;;;6.90;5.60;;;;;;;17.63;59.90;98758.06;6713022;29;20247;-83
2024/03/13 14:34:17;;;;;;;6.63;5.10;;;;;;;18.02;58.96;98790.53;6707041;29;20208;-83
2024/03/13 14:37:38;;;;;;;5.70;5.20;;;;;;;17.58;60.61;98801.59;6701014;29;20353;-83
2024/03/13 14:41:02;;;;;;;5.57;5.07;;;;;;;17.66;60.90;98798.44;6700987;29;20722;-83
2024/03/13 14:44:23;;;;;;;6.40;5.80;;;;;;;17.50;61.50;98804.75;6697762;29;20295;-83
2024/03/13 14:47:46;;;;;;;5.70;5.10;;;;;;;16.83;62.66;98782.09;6700564;29;20212;-83
2024/03/13 14:51:08;;;;;;;9.17;7.13;;;;;;;17.01;62.37;98810.97;6700485;29;20227;-83
2024/03/13 14:54:30;;;;;;;7.40;6.70;;;;;;;16.80;63.95;98817.16;6700570;29;20221;-85
2024/03/13 14:57:58;;;;;;;8.07;7.27;;;;;;;17.59;62.12;98803.25;6696975;29;20235;-83
2024/03/13 15:01:19;;;;;;;8.50;5.50;;;;;;;17.37;62.71;98811.34;6692897;29;20216;-85
2024/03/13 15:04:42;;;;;;;5.53;4.90;;;;;;;17.42;62.45;98800.56;6694485;29;20273;-84
2024/03/13 15:08:04;;;;;;;5.43;4.60;;;;;;;16.91;62.14;98817.06;6688949;29;20233;-84
2024/03/13 15:11:27;;;;;;;5.30;4.30;;;;;;;16.99;61.42;98807.69;6700494;29;20264;-84
2024/03/13 15:14:48;;;;;;;4.17;3.50;;;;;;;16.89;60.82;98770.22;6693526;29;20209;-84
2024/03/13 15:18:10;;;;;;;5.47;3.60;;;;;;;17.42;60.36;98797.81;6695487;29;20384;-83
2024/03/13 15:21:32;;;;;;;3.80;3.40;;;;;;;17.64;59.51;98789.69;6687144;29;20272;-84
2024/03/13 15:24:53;;;;;;;6.70;3.97;;;;;;;17.46;59.69;98788.06;6701676;29;20248;-87
2024/03/13 15:28:15;;;;;;;8.30;3.97;;;;;;;17.50;59.06;98791.09;6683306;29;20806;-84
2024/03/13 15:31:37;;;;;;;5.90;3.70;;;;;;;17.15;59.07;98785.91;6697750;29;20689;-84
2024/03/13 15:34:59;;;;;;;4.93;3.37;;;;;;;17.27;59.01;98794.00;6690157;29;20206;-83
2024/03/13 15:38:21;;;;;;;5.23;2.90;;;;;;;17.68;58.06;98794.41;6694085;29;20233;-83
2024/03/13 15:41:43;;;;;;;6.70;3.47;;;;;;;17.40;58.22;98788.25;6684239;29;20237;-83
2024/03/13 15:45:05;;;;;;;5.63;3.77;;;;;;;17.22;58.35;98800.19;6696052;29;20208;-83
2024/03/13 15:48:27;;;;;;;4.23;3.33;;;;;;;17.11;58.41;98784.72;6696296;29;20236;-83
2024/03/13 15:51:49;;;;;;;3.30;3.00;;;;;;;17.28;57.99;98792.94;6695659;29;20252;-83
2024/03/13 15:55:10;;;;;;;3.70;3.20;;;;;;;17.53;57.57;98796.91;6696234;29;20324;-83
2024/03/13 15:58:32;;;;;;;9.10;3.30;;;;;;;17.65;57.70;98781.28;6695977;29;20331;-83
2024/03/13 16:01:54;;;;;;;3.40;3.10;;;;;;;17.28;57.78;98788.28;6697572;29;20230;-83
2024/03/13 16:05:16;;;;;;;3.63;3.10;;;;;;;16.75;58.25;98716.31;6698972;29;20251;-83
2024/03/13 16:08:38;;;;;;;7.33;3.57;;;;;;;17.36;57.97;98779.72;6699304;29;20229;-84
2024/03/13 16:12:02;;;;;;;3.73;3.17;;;;;;;17.73;57.73;98789.03;6700464;29;20215;-84
2024/03/13 16:15:26;;;;;;;4.97;3.73;;;;;;;17.95;56.93;98773.50;6698853;29;20226;-83
2024/03/13 16:18:50;;;;;;;4.23;3.83;;;;;;;17.86;56.95;98779.66;6700728;29;20233;-84